createdAt,value
2023-02-11T00:07:48.380Z,-2.53
2023-02-11T00:17:48.349Z,-2.30
2023-02-11T00:27:48.499Z,-2.50
2023-02-11T00:37:48.284Z,-3.13
2023-02-11T00:47:48.287Z,-3.23
2023-02-11T00:57:48.232Z,-3.42
2023-02-11T01:07:48.041Z,-3.60
2023-02-11T01:17:47.969Z,-3.31
2023-02-11T01:27:47.892Z,-3.42
2023-02-11T01:37:47.756Z,-3.68
2023-02-11T01:47:47.717Z,-3.88
2023-02-11T01:57:47.505Z,-3.88
2023-02-11T02:07:47.415Z,-3.83
2023-02-11T02:17:47.220Z,-4.16
2023-02-11T02:27:47.353Z,-4.01
2023-02-11T02:37:46.977Z,-3.99
2023-02-11T02:47:46.712Z,-4.10
2023-02-11T02:57:46.509Z,-4.04
2023-02-11T03:07:46.353Z,-4.25
2023-02-11T03:17:46.236Z,-4.38
2023-02-11T03:27:46.072Z,-4.28
2023-02-11T03:37:45.915Z,-4.34
2023-02-11T03:47:45.688Z,-4.39
2023-02-11T03:57:45.507Z,-4.60
2023-02-11T04:07:45.279Z,-4.19
2023-02-11T04:17:45.090Z,-3.77
2023-02-11T04:27:44.843Z,-3.75
2023-02-11T04:37:44.658Z,-3.79
2023-02-11T04:47:44.511Z,-3.82
2023-02-11T04:57:44.300Z,-4.11
2023-02-11T05:07:44.067Z,-4.62
2023-02-11T05:17:43.943Z,-4.65
2023-02-11T05:27:43.681Z,-4.53
2023-02-11T05:37:43.593Z,-4.51
2023-02-11T05:47:43.302Z,-4.67
2023-02-11T05:57:43.199Z,-4.66
2023-02-11T06:07:42.932Z,-4.70
2023-02-11T06:17:42.748Z,-4.43
2023-02-11T06:27:42.649Z,-4.63
2023-02-11T06:37:42.403Z,-4.44
2023-02-11T06:47:42.244Z,-4.22
2023-02-11T06:57:42.116Z,-4.27
2023-02-11T07:07:41.928Z,-3.78
2023-02-11T07:17:41.759Z,-3.26
2023-02-11T07:27:41.687Z,-2.83
2023-02-11T07:37:41.535Z,-2.44
2023-02-11T07:47:41.535Z,-2.18
2023-02-11T07:57:41.578Z,-2.05
2023-02-11T08:07:41.535Z,-1.74
2023-02-11T08:17:41.580Z,-1.44
2023-02-11T08:27:41.544Z,-1.24
2023-02-11T08:37:41.548Z,-0.98
2023-02-11T08:47:41.635Z,-0.61
2023-02-11T08:57:41.697Z,0.40
2023-02-11T09:07:41.872Z,1.23
2023-02-11T09:17:42.088Z,1.85
2023-02-11T09:27:42.282Z,2.78
2023-02-11T09:37:42.575Z,3.04
2023-02-11T09:47:42.932Z,3.35
2023-02-11T09:57:43.298Z,4.19
2023-02-11T10:07:43.640Z,4.06
2023-02-11T10:17:44.036Z,3.82
2023-02-11T10:27:44.474Z,4.01
2023-02-11T10:37:46.241Z,4.49
2023-02-11T10:47:45.274Z,4.27
2023-02-11T10:57:45.708Z,4.52
2023-02-11T11:07:47.311Z,4.55
2023-02-11T11:17:46.613Z,4.60
2023-02-11T11:27:47.019Z,4.65
2023-02-11T11:37:47.540Z,5.23
2023-02-11T11:47:48.145Z,5.49
2023-02-11T11:57:48.546Z,5.53
2023-02-11T12:07:50.364Z,5.64
2023-02-11T12:17:49.533Z,5.68
2023-02-11T12:27:50.066Z,5.72
2023-02-11T12:37:50.586Z,6.00
2023-02-11T12:47:51.860Z,6.12
2023-02-11T12:57:52.956Z,6.14
2023-02-11T13:07:52.257Z,6.22
2023-02-11T13:17:52.562Z,6.28
2023-02-11T13:27:53.125Z,6.12
2023-02-11T13:37:53.574Z,6.15
2023-02-11T13:47:54.251Z,6.27
2023-02-11T13:57:56.088Z,6.30
2023-02-11T14:07:56.497Z,6.36
2023-02-11T14:17:55.406Z,6.26
2023-02-11T14:27:55.976Z,6.27
2023-02-11T14:37:56.647Z,6.47
2023-02-11T14:47:59.340Z,6.70
2023-02-11T14:57:57.459Z,6.69
2023-02-11T15:07:58.044Z,6.70
2023-02-11T15:17:58.485Z,6.45
2023-02-11T15:28:00.620Z,6.31
2023-02-11T15:37:59.576Z,6.31
2023-02-11T15:48:00.167Z,6.16
2023-02-11T15:58:00.583Z,5.99
2023-02-11T16:08:01.469Z,5.92
2023-02-11T16:18:01.656Z,5.75
2023-02-11T16:38:02.624Z,5.56
2023-02-11T16:48:02.909Z,5.47
2023-02-11T16:58:03.776Z,5.49
2023-02-11T17:08:03.988Z,5.44
2023-02-11T17:18:06.772Z,5.47
2023-02-11T17:28:05.006Z,5.46
2023-02-11T17:38:05.528Z,5.42
2023-02-11T17:48:05.930Z,5.43
2023-02-11T17:58:06.397Z,5.49
2023-02-11T18:08:08.824Z,5.53
2023-02-11T18:18:07.938Z,5.47
2023-02-11T18:28:09.445Z,5.60
2023-02-11T18:38:09.963Z,5.52
2023-02-11T18:48:08.622Z,5.50
2023-02-11T18:58:12.301Z,5.42
2023-02-11T19:08:09.578Z,5.42
2023-02-11T19:18:10.241Z,5.43
2023-02-11T19:28:10.532Z,5.46
2023-02-11T19:38:10.965Z,5.41
2023-02-11T19:48:12.639Z,5.39
2023-02-11T19:58:11.885Z,5.47
2023-02-11T20:18:12.739Z,5.54
2023-02-11T20:28:13.052Z,5.67
2023-02-11T20:38:13.609Z,5.69
2023-02-11T20:48:14.194Z,5.72
2023-02-11T20:58:14.653Z,5.77
2023-02-11T21:08:14.924Z,5.73
2023-02-11T21:18:15.294Z,5.72
2023-02-11T21:28:15.834Z,5.75
2023-02-11T21:38:17.096Z,5.71
2023-02-11T21:48:16.423Z,5.77
2023-02-11T21:58:16.922Z,5.74
2023-02-11T22:08:20.100Z,5.68
2023-02-11T22:18:18.233Z,5.51
2023-02-11T22:28:18.500Z,5.34
2023-02-11T22:38:18.875Z,5.34
2023-02-11T22:48:21.422Z,5.30
2023-02-11T22:58:19.769Z,5.24
2023-02-11T23:08:20.224Z,5.27
2023-02-11T23:18:20.806Z,5.15
2023-02-11T23:28:21.252Z,5.22
2023-02-11T23:38:21.672Z,5.17
2023-02-11T23:48:22.000Z,5.08
2023-02-11T23:58:22.448Z,5.11
